sensor_id;sensor_type;location;lat;lon;timestamp;P1;durP1;ratioP1;P2;durP2;ratioP2
30697;SDS011;17448;47.200;10.902;2024-02-26T00:01:54;3.22;;;2.00;;
30697;SDS011;17448;47.200;10.902;2024-02-26T00:04:20;4.60;;;2.30;;
30697;SDS011;17448;47.200;10.902;2024-02-26T00:06:47;5.72;;;2.20;;
30697;SDS011;17448;47.200;10.902;2024-02-26T00:09:15;3.72;;;2.20;;
30697;SDS011;17448;47.200;10.902;2024-02-26T00:11:41;6.88;;;2.60;;
30697;SDS011;17448;47.200;10.902;2024-02-26T00:14:07;5.65;;;2.58;;
30697;SDS011;17448;47.200;10.902;2024-02-26T00:16:34;6.63;;;2.50;;
30697;SDS011;17448;47.200;10.902;2024-02-26T00:19:00;7.22;;;2.80;;
30697;SDS011;17448;47.200;10.902;2024-02-26T00:21:26;3.75;;;2.00;;
30697;SDS011;17448;47.200;10.902;2024-02-26T00:23:53;3.10;;;2.30;;
30697;SDS011;17448;47.200;10.902;2024-02-26T00:26:19;4.00;;;2.10;;
30697;SDS011;17448;47.200;10.902;2024-02-26T00:28:45;5.25;;;2.50;;
30697;SDS011;17448;47.200;10.902;2024-02-26T00:31:11;4.63;;;2.50;;
30697;SDS011;17448;47.200;10.902;2024-02-26T00:33:38;4.03;;;2.33;;
30697;SDS011;17448;47.200;10.902;2024-02-26T00:36:04;5.90;;;2.35;;
30697;SDS011;17448;47.200;10.902;2024-02-26T00:38:30;3.85;;;2.30;;
30697;SDS011;17448;47.200;10.902;2024-02-26T00:40:56;5.20;;;2.35;;
30697;SDS011;17448;47.200;10.902;2024-02-26T00:43:23;4.82;;;1.60;;
30697;SDS011;17448;47.200;10.902;2024-02-26T00:45:49;3.78;;;1.70;;
30697;SDS011;17448;47.200;10.902;2024-02-26T00:48:17;4.25;;;2.05;;
30697;SDS011;17448;47.200;10.902;2024-02-26T00:50:43;3.03;;;2.10;;
30697;SDS011;17448;47.200;10.902;2024-02-26T00:53:09;4.47;;;2.00;;
30697;SDS011;17448;47.200;10.902;2024-02-26T00:55:35;4.82;;;1.85;;
30697;SDS011;17448;47.200;10.902;2024-02-26T00:58:02;3.03;;;1.85;;
30697;SDS011;17448;47.200;10.902;2024-02-26T01:00:28;3.95;;;2.10;;
30697;SDS011;17448;47.200;10.902;2024-02-26T01:02:54;3.30;;;2.05;;
30697;SDS011;17448;47.200;10.902;2024-02-26T01:05:21;2.63;;;1.77;;
30697;SDS011;17448;47.200;10.902;2024-02-26T01:07:48;3.17;;;1.90;;
30697;SDS011;17448;47.200;10.902;2024-02-26T01:10:14;2.85;;;1.83;;
30697;SDS011;17448;47.200;10.902;2024-02-26T01:12:40;2.40;;;1.60;;
30697;SDS011;17448;47.200;10.902;2024-02-26T01:15:06;2.25;;;1.90;;
30697;SDS011;17448;47.200;10.902;2024-02-26T01:17:33;2.05;;;1.65;;
30697;SDS011;17448;47.200;10.902;2024-02-26T01:19:59;2.00;;;1.70;;
30697;SDS011;17448;47.200;10.902;2024-02-26T01:22:25;2.88;;;1.55;;
30697;SDS011;17448;47.200;10.902;2024-02-26T01:24:52;1.83;;;1.55;;
30697;SDS011;17448;47.200;10.902;2024-02-26T01:27:18;2.35;;;1.48;;
30697;SDS011;17448;47.200;10.902;2024-02-26T01:29:44;2.92;;;1.80;;
30697;SDS011;17448;47.200;10.902;2024-02-26T01:32:10;3.00;;;2.13;;
30697;SDS011;17448;47.200;10.902;2024-02-26T01:34:37;3.90;;;2.00;;
30697;SDS011;17448;47.200;10.902;2024-02-26T01:37:03;5.00;;;2.03;;
30697;SDS011;17448;47.200;10.902;2024-02-26T01:39:29;3.58;;;2.10;;
30697;SDS011;17448;47.200;10.902;2024-02-26T01:41:55;4.35;;;1.73;;
30697;SDS011;17448;47.200;10.902;2024-02-26T01:44:22;2.55;;;1.90;;
30697;SDS011;17448;47.200;10.902;2024-02-26T01:46:48;2.00;;;1.70;;
30697;SDS011;17448;47.200;10.902;2024-02-26T01:49:15;2.92;;;1.80;;
30697;SDS011;17448;47.200;10.902;2024-02-26T01:51:41;2.72;;;1.75;;
30697;SDS011;17448;47.200;10.902;2024-02-26T01:54:09;4.63;;;1.63;;
30697;SDS011;17448;47.200;10.902;2024-02-26T01:56:36;2.92;;;1.70;;
30697;SDS011;17448;47.200;10.902;2024-02-26T01:59:02;2.67;;;1.90;;
30697;SDS011;17448;47.200;10.902;2024-02-26T02:01:29;4.03;;;1.90;;
30697;SDS011;17448;47.200;10.902;2024-02-26T02:03:56;3.47;;;1.73;;
30697;SDS011;17448;47.200;10.902;2024-02-26T02:06:23;6.50;;;1.95;;
30697;SDS011;17448;47.200;10.902;2024-02-26T02:08:50;4.07;;;2.13;;
30697;SDS011;17448;47.200;10.902;2024-02-26T02:11:16;3.85;;;1.98;;
30697;SDS011;17448;47.200;10.902;2024-02-26T02:13:43;2.70;;;1.77;;
30697;SDS011;17448;47.200;10.902;2024-02-26T02:16:09;4.10;;;2.35;;
30697;SDS011;17448;47.200;10.902;2024-02-26T02:18:35;2.85;;;1.63;;
30697;SDS011;17448;47.200;10.902;2024-02-26T02:21:01;4.47;;;1.80;;
30697;SDS011;17448;47.200;10.902;2024-02-26T02:23:27;2.70;;;1.90;;
30697;SDS011;17448;47.200;10.902;2024-02-26T02:25:54;4.38;;;2.22;;
30697;SDS011;17448;47.200;10.902;2024-02-26T02:28:21;3.17;;;1.80;;
30697;SDS011;17448;47.200;10.902;2024-02-26T02:30:48;3.75;;;2.10;;
30697;SDS011;17448;47.200;10.902;2024-02-26T02:33:15;2.65;;;2.40;;
30697;SDS011;17448;47.200;10.902;2024-02-26T02:35:41;2.65;;;1.70;;
30697;SDS011;17448;47.200;10.902;2024-02-26T02:38:08;2.53;;;1.83;;
30697;SDS011;17448;47.200;10.902;2024-02-26T02:40:34;2.50;;;1.70;;
30697;SDS011;17448;47.200;10.902;2024-02-26T02:43:00;1.80;;;1.60;;
30697;SDS011;17448;47.200;10.902;2024-02-26T02:45:27;3.20;;;2.03;;
30697;SDS011;17448;47.200;10.902;2024-02-26T02:47:53;2.35;;;1.60;;
30697;SDS011;17448;47.200;10.902;2024-02-26T02:50:20;2.95;;;1.98;;
30697;SDS011;17448;47.200;10.902;2024-02-26T02:52:46;3.47;;;1.95;;
30697;SDS011;17448;47.200;10.902;2024-02-26T02:55:13;5.88;;;2.30;;
30697;SDS011;17448;47.200;10.902;2024-02-26T02:57:39;1.98;;;1.40;;
30697;SDS011;17448;47.200;10.902;2024-02-26T03:00:10;5.00;;;2.08;;
30697;SDS011;17448;47.200;10.902;2024-02-26T03:02:37;4.40;;;1.40;;
30697;SDS011;17448;47.200;10.902;2024-02-26T03:05:03;2.13;;;1.73;;
30697;SDS011;17448;47.200;10.902;2024-02-26T03:07:30;2.65;;;1.65;;
30697;SDS011;17448;47.200;10.902;2024-02-26T03:09:56;3.08;;;1.70;;
30697;SDS011;17448;47.200;10.902;2024-02-26T03:12:22;2.10;;;1.75;;
30697;SDS011;17448;47.200;10.902;2024-02-26T03:14:49;1.67;;;1.50;;
30697;SDS011;17448;47.200;10.902;2024-02-26T03:17:15;2.30;;;1.70;;
30697;SDS011;17448;47.200;10.902;2024-02-26T03:19:41;2.97;;;1.75;;
30697;SDS011;17448;47.200;10.902;2024-02-26T03:22:07;2.30;;;1.70;;
30697;SDS011;17448;47.200;10.902;2024-02-26T03:24:33;2.92;;;2.00;;
30697;SDS011;17448;47.200;10.902;2024-02-26T03:27:00;2.38;;;1.60;;
30697;SDS011;17448;47.200;10.902;2024-02-26T03:29:26;2.22;;;1.65;;
30697;SDS011;17448;47.200;10.902;2024-02-26T03:31:52;2.88;;;1.60;;
30697;SDS011;17448;47.200;10.902;2024-02-26T03:34:18;1.67;;;1.58;;
30697;SDS011;17448;47.200;10.902;2024-02-26T03:36:45;2.90;;;1.77;;
30697;SDS011;17448;47.200;10.902;2024-02-26T03:39:11;3.92;;;1.60;;
30697;SDS011;17448;47.200;10.902;2024-02-26T03:41:37;3.40;;;1.65;;
30697;SDS011;17448;47.200;10.902;2024-02-26T03:44:03;2.63;;;1.75;;
30697;SDS011;17448;47.200;10.902;2024-02-26T03:46:29;3.65;;;1.92;;
30697;SDS011;17448;47.200;10.902;2024-02-26T03:48:56;2.15;;;1.75;;
30697;SDS011;17448;47.200;10.902;2024-02-26T03:51:22;2.22;;;1.73;;
30697;SDS011;17448;47.200;10.902;2024-02-26T03:53:48;2.17;;;1.60;;
30697;SDS011;17448;47.200;10.902;2024-02-26T03:56:14;2.53;;;1.58;;
30697;SDS011;17448;47.200;10.902;2024-02-26T03:58:40;2.80;;;1.63;;
30697;SDS011;17448;47.200;10.902;2024-02-26T04:01:07;2.90;;;1.90;;
30697;SDS011;17448;47.200;10.902;2024-02-26T04:03:34;4.03;;;1.95;;
30697;SDS011;17448;47.200;10.902;2024-02-26T04:06:01;11.27;;;5.43;;
30697;SDS011;17448;47.200;10.902;2024-02-26T04:08:28;16.23;;;8.00;;
30697;SDS011;17448;47.200;10.902;2024-02-26T04:10:54;5.63;;;2.88;;
30697;SDS011;17448;47.200;10.902;2024-02-26T04:13:20;7.63;;;4.07;;
30697;SDS011;17448;47.200;10.902;2024-02-26T04:15:46;2.75;;;2.05;;
30697;SDS011;17448;47.200;10.902;2024-02-26T04:18:13;3.35;;;2.10;;
30697;SDS011;17448;47.200;10.902;2024-02-26T04:20:39;3.92;;;2.05;;
30697;SDS011;17448;47.200;10.902;2024-02-26T04:23:07;1.90;;;1.70;;
30697;SDS011;17448;47.200;10.902;2024-02-26T04:25:33;4.22;;;1.95;;
30697;SDS011;17448;47.200;10.902;2024-02-26T04:28:00;2.47;;;1.55;;
30697;SDS011;17448;47.200;10.902;2024-02-26T04:30:26;2.97;;;1.83;;
30697;SDS011;17448;47.200;10.902;2024-02-26T04:32:52;2.53;;;1.67;;
30697;SDS011;17448;47.200;10.902;2024-02-26T04:35:18;3.72;;;1.98;;
30697;SDS011;17448;47.200;10.902;2024-02-26T04:37:44;5.50;;;2.00;;
30697;SDS011;17448;47.200;10.902;2024-02-26T04:40:11;2.83;;;1.80;;
30697;SDS011;17448;47.200;10.902;2024-02-26T04:42:37;3.17;;;1.70;;
30697;SDS011;17448;47.200;10.902;2024-02-26T04:45:03;3.30;;;1.88;;
30697;SDS011;17448;47.200;10.902;2024-02-26T04:47:29;3.35;;;1.88;;
30697;SDS011;17448;47.200;10.902;2024-02-26T04:49:56;1.80;;;1.52;;
30697;SDS011;17448;47.200;10.902;2024-02-26T04:52:22;2.75;;;1.90;;
30697;SDS011;17448;47.200;10.902;2024-02-26T04:54:48;2.65;;;1.95;;
30697;SDS011;17448;47.200;10.902;2024-02-26T04:57:15;3.95;;;2.08;;
30697;SDS011;17448;47.200;10.902;2024-02-26T04:59:43;2.58;;;1.60;;
30697;SDS011;17448;47.200;10.902;2024-02-26T05:02:11;1.88;;;1.70;;
30697;SDS011;17448;47.200;10.902;2024-02-26T05:04:37;2.58;;;1.60;;
30697;SDS011;17448;47.200;10.902;2024-02-26T05:07:03;4.05;;;2.00;;
30697;SDS011;17448;47.200;10.902;2024-02-26T05:09:29;2.80;;;2.13;;
30697;SDS011;17448;47.200;10.902;2024-02-26T05:11:56;5.65;;;2.10;;
30697;SDS011;17448;47.200;10.902;2024-02-26T05:14:22;1.58;;;1.48;;
30697;SDS011;17448;47.200;10.902;2024-02-26T05:16:48;3.50;;;2.00;;
30697;SDS011;17448;47.200;10.902;2024-02-26T05:19:14;3.13;;;1.90;;
30697;SDS011;17448;47.200;10.902;2024-02-26T05:21:41;3.22;;;2.10;;
30697;SDS011;17448;47.200;10.902;2024-02-26T05:24:09;4.45;;;3.13;;
30697;SDS011;17448;47.200;10.902;2024-02-26T05:26:35;3.97;;;3.05;;
30697;SDS011;17448;47.200;10.902;2024-02-26T05:29:02;4.53;;;2.70;;
30697;SDS011;17448;47.200;10.902;2024-02-26T05:31:28;8.23;;;3.97;;
30697;SDS011;17448;47.200;10.902;2024-02-26T05:33:54;6.88;;;3.60;;
30697;SDS011;17448;47.200;10.902;2024-02-26T05:36:21;3.63;;;2.05;;
30697;SDS011;17448;47.200;10.902;2024-02-26T05:38:48;9.75;;;2.58;;
30697;SDS011;17448;47.200;10.902;2024-02-26T05:41:17;3.78;;;2.55;;
30697;SDS011;17448;47.200;10.902;2024-02-26T05:43:51;3.55;;;2.45;;
30697;SDS011;17448;47.200;10.902;2024-02-26T05:46:17;3.67;;;2.22;;
30697;SDS011;17448;47.200;10.902;2024-02-26T05:48:44;3.50;;;2.38;;
30697;SDS011;17448;47.200;10.902;2024-02-26T05:51:10;5.05;;;2.53;;
30697;SDS011;17448;47.200;10.902;2024-02-26T05:53:36;3.50;;;2.70;;
30697;SDS011;17448;47.200;10.902;2024-02-26T05:56:02;3.75;;;2.40;;
30697;SDS011;17448;47.200;10.902;2024-02-26T05:58:29;5.70;;;2.67;;
30697;SDS011;17448;47.200;10.902;2024-02-26T06:00:55;2.25;;;1.92;;
30697;SDS011;17448;47.200;10.902;2024-02-26T06:03:21;4.65;;;2.60;;
30697;SDS011;17448;47.200;10.902;2024-02-26T06:05:47;4.18;;;3.00;;
30697;SDS011;17448;47.200;10.902;2024-02-26T06:08:13;5.00;;;2.78;;
30697;SDS011;17448;47.200;10.902;2024-02-26T06:10:39;4.57;;;2.80;;
30697;SDS011;17448;47.200;10.902;2024-02-26T06:13:06;5.82;;;2.60;;
30697;SDS011;17448;47.200;10.902;2024-02-26T06:15:32;4.07;;;3.05;;
30697;SDS011;17448;47.200;10.902;2024-02-26T06:17:58;2.92;;;2.22;;
30697;SDS011;17448;47.200;10.902;2024-02-26T06:20:25;5.53;;;2.78;;
30697;SDS011;17448;47.200;10.902;2024-02-26T06:22:51;4.07;;;2.72;;
30697;SDS011;17448;47.200;10.902;2024-02-26T06:25:17;4.38;;;3.58;;
30697;SDS011;17448;47.200;10.902;2024-02-26T06:27:43;5.63;;;3.38;;
30697;SDS011;17448;47.200;10.902;2024-02-26T06:30:10;5.63;;;3.60;;
30697;SDS011;17448;47.200;10.902;2024-02-26T06:32:36;5.85;;;3.65;;
30697;SDS011;17448;47.200;10.902;2024-02-26T06:35:03;6.75;;;4.18;;
30697;SDS011;17448;47.200;10.902;2024-02-26T06:37:33;7.82;;;4.90;;
30697;SDS011;17448;47.200;10.902;2024-02-26T06:39:59;9.65;;;5.82;;
30697;SDS011;17448;47.200;10.902;2024-02-26T06:42:26;12.23;;;6.50;;
30697;SDS011;17448;47.200;10.902;2024-02-26T06:44:52;8.85;;;5.68;;
30697;SDS011;17448;47.200;10.902;2024-02-26T06:47:18;7.95;;;4.55;;
30697;SDS011;17448;47.200;10.902;2024-02-26T06:49:45;6.38;;;4.00;;
30697;SDS011;17448;47.200;10.902;2024-02-26T06:52:11;7.50;;;4.60;;
30697;SDS011;17448;47.200;10.902;2024-02-26T06:54:37;8.18;;;4.43;;
30697;SDS011;17448;47.200;10.902;2024-02-26T06:57:03;7.40;;;4.13;;
30697;SDS011;17448;47.200;10.902;2024-02-26T06:59:30;8.85;;;3.78;;
30697;SDS011;17448;47.200;10.902;2024-02-26T07:01:56;4.82;;;3.78;;
30697;SDS011;17448;47.200;10.902;2024-02-26T07:04:22;7.80;;;3.92;;
30697;SDS011;17448;47.200;10.902;2024-02-26T07:06:48;5.95;;;3.60;;
30697;SDS011;17448;47.200;10.902;2024-02-26T07:09:14;7.72;;;4.03;;
30697;SDS011;17448;47.200;10.902;2024-02-26T07:11:41;4.45;;;2.78;;
30697;SDS011;17448;47.200;10.902;2024-02-26T07:14:11;4.72;;;3.00;;
30697;SDS011;17448;47.200;10.902;2024-02-26T07:16:38;4.63;;;3.00;;
30697;SDS011;17448;47.200;10.902;2024-02-26T07:19:04;3.58;;;2.65;;
30697;SDS011;17448;47.200;10.902;2024-02-26T07:21:30;7.68;;;3.92;;
30697;SDS011;17448;47.200;10.902;2024-02-26T07:23:56;7.55;;;4.30;;
30697;SDS011;17448;47.200;10.902;2024-02-26T07:26:23;3.85;;;2.63;;
30697;SDS011;17448;47.200;10.902;2024-02-26T07:28:51;3.53;;;2.60;;
30697;SDS011;17448;47.200;10.902;2024-02-26T07:31:17;6.20;;;2.65;;
30697;SDS011;17448;47.200;10.902;2024-02-26T07:33:44;5.65;;;3.92;;
30697;SDS011;17448;47.200;10.902;2024-02-26T07:36:10;6.57;;;4.10;;
30697;SDS011;17448;47.200;10.902;2024-02-26T07:38:36;6.53;;;3.72;;
30697;SDS011;17448;47.200;10.902;2024-02-26T07:41:03;7.35;;;4.38;;
30697;SDS011;17448;47.200;10.902;2024-02-26T07:43:29;10.18;;;5.10;;
30697;SDS011;17448;47.200;10.902;2024-02-26T07:45:55;7.15;;;4.13;;
30697;SDS011;17448;47.200;10.902;2024-02-26T07:48:21;10.02;;;5.40;;
30697;SDS011;17448;47.200;10.902;2024-02-26T07:50:47;7.40;;;4.03;;
30697;SDS011;17448;47.200;10.902;2024-02-26T07:53:13;5.40;;;3.80;;
30697;SDS011;17448;47.200;10.902;2024-02-26T07:55:40;7.07;;;4.20;;
30697;SDS011;17448;47.200;10.902;2024-02-26T07:58:06;8.98;;;5.40;;
30697;SDS011;17448;47.200;10.902;2024-02-26T08:00:32;7.95;;;4.53;;
30697;SDS011;17448;47.200;10.902;2024-02-26T08:02:58;9.48;;;5.28;;
30697;SDS011;17448;47.200;10.902;2024-02-26T08:05:25;12.88;;;5.22;;
30697;SDS011;17448;47.200;10.902;2024-02-26T08:07:51;10.73;;;5.65;;
30697;SDS011;17448;47.200;10.902;2024-02-26T08:10:17;8.55;;;5.45;;
30697;SDS011;17448;47.200;10.902;2024-02-26T08:12:43;9.80;;;5.65;;
30697;SDS011;17448;47.200;10.902;2024-02-26T08:15:10;11.70;;;6.53;;
30697;SDS011;17448;47.200;10.902;2024-02-26T08:17:36;12.50;;;7.75;;
30697;SDS011;17448;47.200;10.902;2024-02-26T08:20:03;10.30;;;6.93;;
30697;SDS011;17448;47.200;10.902;2024-02-26T08:22:30;15.85;;;9.27;;
30697;SDS011;17448;47.200;10.902;2024-02-26T08:24:56;14.77;;;8.25;;
30697;SDS011;17448;47.200;10.902;2024-02-26T08:27:23;12.82;;;7.38;;
30697;SDS011;17448;47.200;10.902;2024-02-26T08:29:49;11.02;;;6.43;;
30697;SDS011;17448;47.200;10.902;2024-02-26T08:32:15;12.65;;;7.00;;
30697;SDS011;17448;47.200;10.902;2024-02-26T08:34:42;11.35;;;6.65;;
30697;SDS011;17448;47.200;10.902;2024-02-26T08:37:08;6.70;;;4.00;;
30697;SDS011;17448;47.200;10.902;2024-02-26T08:39:34;6.30;;;4.28;;
30697;SDS011;17448;47.200;10.902;2024-02-26T08:42:00;8.73;;;4.28;;
30697;SDS011;17448;47.200;10.902;2024-02-26T08:44:26;7.80;;;4.32;;
30697;SDS011;17448;47.200;10.902;2024-02-26T08:46:52;6.20;;;4.20;;
30697;SDS011;17448;47.200;10.902;2024-02-26T08:49:19;8.18;;;4.68;;
30697;SDS011;17448;47.200;10.902;2024-02-26T08:51:45;6.53;;;4.25;;
30697;SDS011;17448;47.200;10.902;2024-02-26T08:54:11;9.07;;;5.30;;
30697;SDS011;17448;47.200;10.902;2024-02-26T08:56:37;6.60;;;5.18;;
30697;SDS011;17448;47.200;10.902;2024-02-26T08:59:03;6.65;;;4.35;;
30697;SDS011;17448;47.200;10.902;2024-02-26T09:01:32;4.75;;;3.53;;
30697;SDS011;17448;47.200;10.902;2024-02-26T09:03:59;6.10;;;3.85;;
30697;SDS011;17448;47.200;10.902;2024-02-26T09:06:25;7.10;;;4.50;;
30697;SDS011;17448;47.200;10.902;2024-02-26T09:08:51;7.90;;;4.10;;
30697;SDS011;17448;47.200;10.902;2024-02-26T09:11:17;8.32;;;4.63;;
30697;SDS011;17448;47.200;10.902;2024-02-26T09:13:44;8.07;;;4.75;;
30697;SDS011;17448;47.200;10.902;2024-02-26T09:16:11;8.45;;;5.50;;
30697;SDS011;17448;47.200;10.902;2024-02-26T09:18:38;8.55;;;5.80;;
30697;SDS011;17448;47.200;10.902;2024-02-26T09:21:04;9.70;;;5.28;;
30697;SDS011;17448;47.200;10.902;2024-02-26T09:23:33;12.02;;;6.65;;
30697;SDS011;17448;47.200;10.902;2024-02-26T09:26:00;12.70;;;6.10;;
30697;SDS011;17448;47.200;10.902;2024-02-26T09:28:26;14.30;;;6.22;;
30697;SDS011;17448;47.200;10.902;2024-02-26T09:30:53;14.27;;;6.90;;
30697;SDS011;17448;47.200;10.902;2024-02-26T09:33:19;9.90;;;6.70;;
30697;SDS011;17448;47.200;10.902;2024-02-26T09:35:45;10.60;;;7.53;;
30697;SDS011;17448;47.200;10.902;2024-02-26T09:38:12;11.60;;;6.97;;
30697;SDS011;17448;47.200;10.902;2024-02-26T09:40:39;14.63;;;7.07;;
30697;SDS011;17448;47.200;10.902;2024-02-26T09:43:05;12.90;;;6.95;;
30697;SDS011;17448;47.200;10.902;2024-02-26T09:45:34;15.73;;;5.97;;
30697;SDS011;17448;47.200;10.902;2024-02-26T09:48:01;12.35;;;6.65;;
30697;SDS011;17448;47.200;10.902;2024-02-26T09:50:28;25.27;;;6.85;;
30697;SDS011;17448;47.200;10.902;2024-02-26T09:52:55;8.07;;;5.28;;
30697;SDS011;17448;47.200;10.902;2024-02-26T09:55:24;17.75;;;6.13;;
30697;SDS011;17448;47.200;10.902;2024-02-26T09:57:51;25.42;;;6.53;;
30697;SDS011;17448;47.200;10.902;2024-02-26T10:00:17;20.50;;;7.18;;
30697;SDS011;17448;47.200;10.902;2024-02-26T10:02:47;30.67;;;8.77;;
30697;SDS011;17448;47.200;10.902;2024-02-26T10:05:17;38.22;;;8.75;;
30697;SDS011;17448;47.200;10.902;2024-02-26T10:07:47;26.15;;;6.63;;
30697;SDS011;17448;47.200;10.902;2024-02-26T10:10:17;29.83;;;6.35;;
30697;SDS011;17448;47.200;10.902;2024-02-26T10:12:43;11.82;;;5.35;;
30697;SDS011;17448;47.200;10.902;2024-02-26T10:15:10;26.60;;;6.53;;
30697;SDS011;17448;47.200;10.902;2024-02-26T10:17:36;16.25;;;4.82;;
30697;SDS011;17448;47.200;10.902;2024-02-26T10:20:16;6.18;;;3.53;;
30697;SDS011;17448;47.200;10.902;2024-02-26T10:22:48;9.80;;;4.15;;
30697;SDS011;17448;47.200;10.902;2024-02-26T10:25:16;42.08;;;5.57;;
30697;SDS011;17448;47.200;10.902;2024-02-26T10:27:45;3.20;;;2.17;;
30697;SDS011;17448;47.200;10.902;2024-02-26T10:30:18;3.53;;;2.20;;
30697;SDS011;17448;47.200;10.902;2024-02-26T10:32:48;5.35;;;2.90;;
30697;SDS011;17448;47.200;10.902;2024-02-26T10:35:15;7.00;;;3.22;;
30697;SDS011;17448;47.200;10.902;2024-02-26T10:37:42;8.95;;;3.40;;
30697;SDS011;17448;47.200;10.902;2024-02-26T10:40:12;5.25;;;2.90;;
30697;SDS011;17448;47.200;10.902;2024-02-26T10:42:39;12.18;;;3.42;;
30697;SDS011;17448;47.200;10.902;2024-02-26T10:45:05;7.40;;;3.20;;
30697;SDS011;17448;47.200;10.902;2024-02-26T10:47:32;6.00;;;2.97;;
30697;SDS011;17448;47.200;10.902;2024-02-26T10:49:59;6.90;;;3.70;;
30697;SDS011;17448;47.200;10.902;2024-02-26T10:52:25;7.07;;;2.90;;
30697;SDS011;17448;47.200;10.902;2024-02-26T10:54:53;6.90;;;3.10;;
30697;SDS011;17448;47.200;10.902;2024-02-26T10:57:19;9.43;;;2.95;;
30697;SDS011;17448;47.200;10.902;2024-02-26T11:05:12;2.88;;;2.20;;
30697;SDS011;17448;47.200;10.902;2024-02-26T11:07:38;3.17;;;1.52;;
30697;SDS011;17448;47.200;10.902;2024-02-26T11:15:44;9.18;;;2.00;;
30697;SDS011;17448;47.200;10.902;2024-02-26T11:18:14;2.78;;;1.30;;
30697;SDS011;17448;47.200;10.902;2024-02-26T11:20:41;1.90;;;1.20;;
30697;SDS011;17448;47.200;10.902;2024-02-26T11:23:08;2.53;;;1.45;;
30697;SDS011;17448;47.200;10.902;2024-02-26T11:25:35;1.70;;;1.50;;
30697;SDS011;17448;47.200;10.902;2024-02-26T11:28:05;1.98;;;1.50;;
30697;SDS011;17448;47.200;10.902;2024-02-26T11:30:33;1.70;;;1.35;;
30697;SDS011;17448;47.200;10.902;2024-02-26T11:33:03;3.70;;;1.20;;
30697;SDS011;17448;47.200;10.902;2024-02-26T11:35:30;1.77;;;1.08;;
30697;SDS011;17448;47.200;10.902;2024-02-26T11:37:57;4.05;;;1.60;;
30697;SDS011;17448;47.200;10.902;2024-02-26T11:40:24;7.85;;;1.48;;
30697;SDS011;17448;47.200;10.902;2024-02-26T11:53:19;3.58;;;1.42;;
30697;SDS011;17448;47.200;10.902;2024-02-26T11:55:46;5.40;;;1.75;;
30697;SDS011;17448;47.200;10.902;2024-02-26T11:58:13;2.92;;;1.60;;
30697;SDS011;17448;47.200;10.902;2024-02-26T12:00:40;3.90;;;1.85;;
30697;SDS011;17448;47.200;10.902;2024-02-26T12:05:56;3.17;;;1.25;;
30697;SDS011;17448;47.200;10.902;2024-02-26T12:08:22;2.05;;;1.40;;
30697;SDS011;17448;47.200;10.902;2024-02-26T12:10:50;3.53;;;1.80;;
30697;SDS011;17448;47.200;10.902;2024-02-26T12:13:19;3.17;;;1.50;;
30697;SDS011;17448;47.200;10.902;2024-02-26T12:18:23;2.58;;;1.52;;
30697;SDS011;17448;47.200;10.902;2024-02-26T12:21:02;1.98;;;1.42;;
30697;SDS011;17448;47.200;10.902;2024-02-26T12:23:30;5.90;;;1.70;;
30697;SDS011;17448;47.200;10.902;2024-02-26T12:25:59;7.35;;;1.80;;
30697;SDS011;17448;47.200;10.902;2024-02-26T12:28:48;2.63;;;1.73;;
30697;SDS011;17448;47.200;10.902;2024-02-26T12:34:07;15.75;;;3.65;;
30697;SDS011;17448;47.200;10.902;2024-02-26T12:36:35;4.85;;;1.98;;
30697;SDS011;17448;47.200;10.902;2024-02-26T12:39:04;20.70;;;3.97;;
30697;SDS011;17448;47.200;10.902;2024-02-26T12:44:00;3.45;;;1.60;;
30697;SDS011;17448;47.200;10.902;2024-02-26T12:46:33;10.77;;;2.10;;
30697;SDS011;17448;47.200;10.902;2024-02-26T12:49:00;12.27;;;2.47;;
30697;SDS011;17448;47.200;10.902;2024-02-26T12:54:16;6.30;;;1.92;;
30697;SDS011;17448;47.200;10.902;2024-02-26T12:56:42;11.60;;;2.25;;
30697;SDS011;17448;47.200;10.902;2024-02-26T12:59:08;24.00;;;3.42;;
30697;SDS011;17448;47.200;10.902;2024-02-26T13:01:35;31.52;;;4.20;;
30697;SDS011;17448;47.200;10.902;2024-02-26T13:04:02;12.27;;;2.75;;
30697;SDS011;17448;47.200;10.902;2024-02-26T13:06:32;13.07;;;2.30;;
30697;SDS011;17448;47.200;10.902;2024-02-26T13:09:01;6.82;;;1.85;;
30697;SDS011;17448;47.200;10.902;2024-02-26T13:11:28;2.05;;;1.75;;
30697;SDS011;17448;47.200;10.902;2024-02-26T13:13:58;6.05;;;2.33;;
30697;SDS011;17448;47.200;10.902;2024-02-26T13:16:25;4.95;;;1.88;;
30697;SDS011;17448;47.200;10.902;2024-02-26T13:18:51;7.38;;;2.47;;
30697;SDS011;17448;47.200;10.902;2024-02-26T13:21:18;7.00;;;2.83;;
30697;SDS011;17448;47.200;10.902;2024-02-26T13:23:48;14.35;;;2.80;;
30697;SDS011;17448;47.200;10.902;2024-02-26T13:26:15;4.60;;;2.17;;
30697;SDS011;17448;47.200;10.902;2024-02-26T13:28:43;4.80;;;2.30;;
30697;SDS011;17448;47.200;10.902;2024-02-26T13:31:12;4.22;;;2.00;;
30697;SDS011;17448;47.200;10.902;2024-02-26T13:33:38;8.77;;;2.65;;
30697;SDS011;17448;47.200;10.902;2024-02-26T13:36:04;7.13;;;2.63;;
30697;SDS011;17448;47.200;10.902;2024-02-26T13:38:30;26.40;;;3.88;;
30697;SDS011;17448;47.200;10.902;2024-02-26T13:40:57;5.53;;;2.08;;
30697;SDS011;17448;47.200;10.902;2024-02-26T13:43:23;3.58;;;1.85;;
30697;SDS011;17448;47.200;10.902;2024-02-26T13:45:50;17.48;;;4.05;;
30697;SDS011;17448;47.200;10.902;2024-02-26T13:48:16;10.98;;;3.13;;
30697;SDS011;17448;47.200;10.902;2024-02-26T13:50:42;6.05;;;1.75;;
30697;SDS011;17448;47.200;10.902;2024-02-26T13:53:10;9.75;;;1.80;;
30697;SDS011;17448;47.200;10.902;2024-02-26T13:55:37;4.25;;;1.70;;
30697;SDS011;17448;47.200;10.902;2024-02-26T13:58:03;3.72;;;1.98;;
30697;SDS011;17448;47.200;10.902;2024-02-26T14:00:30;7.22;;;1.77;;
30697;SDS011;17448;47.200;10.902;2024-02-26T14:02:59;4.68;;;1.95;;
30697;SDS011;17448;47.200;10.902;2024-02-26T14:05:25;4.80;;;1.73;;
30697;SDS011;17448;47.200;10.902;2024-02-26T14:07:52;3.47;;;1.35;;
30697;SDS011;17448;47.200;10.902;2024-02-26T14:10:20;5.50;;;1.77;;
30697;SDS011;17448;47.200;10.902;2024-02-26T14:12:46;10.75;;;2.10;;
30697;SDS011;17448;47.200;10.902;2024-02-26T14:15:12;7.22;;;1.55;;
30697;SDS011;17448;47.200;10.902;2024-02-26T14:17:42;3.95;;;1.83;;
30697;SDS011;17448;47.200;10.902;2024-02-26T14:20:09;8.25;;;1.90;;
30697;SDS011;17448;47.200;10.902;2024-02-26T14:22:36;7.18;;;2.10;;
30697;SDS011;17448;47.200;10.902;2024-02-26T14:25:03;8.77;;;2.05;;
30697;SDS011;17448;47.200;10.902;2024-02-26T14:27:29;11.43;;;2.13;;
30697;SDS011;17448;47.200;10.902;2024-02-26T14:29:56;15.32;;;2.17;;
30697;SDS011;17448;47.200;10.902;2024-02-26T14:32:23;4.70;;;1.63;;
30697;SDS011;17448;47.200;10.902;2024-02-26T14:34:52;4.28;;;1.77;;
30697;SDS011;17448;47.200;10.902;2024-02-26T14:37:19;2.80;;;1.38;;
30697;SDS011;17448;47.200;10.902;2024-02-26T14:39:45;4.70;;;2.05;;
30697;SDS011;17448;47.200;10.902;2024-02-26T14:42:13;7.22;;;2.10;;
30697;SDS011;17448;47.200;10.902;2024-02-26T14:44:43;5.35;;;2.00;;
30697;SDS011;17448;47.200;10.902;2024-02-26T14:47:09;7.07;;;2.08;;
30697;SDS011;17448;47.200;10.902;2024-02-26T14:49:36;5.10;;;1.90;;
30697;SDS011;17448;47.200;10.902;2024-02-26T14:52:03;23.67;;;4.78;;
30697;SDS011;17448;47.200;10.902;2024-02-26T14:54:29;4.00;;;1.83;;
30697;SDS011;17448;47.200;10.902;2024-02-26T14:57:03;11.65;;;3.10;;
30697;SDS011;17448;47.200;10.902;2024-02-26T14:59:30;8.40;;;1.88;;
30697;SDS011;17448;47.200;10.902;2024-02-26T15:01:57;6.45;;;2.58;;
30697;SDS011;17448;47.200;10.902;2024-02-26T15:07:14;9.60;;;1.95;;
30697;SDS011;17448;47.200;10.902;2024-02-26T15:09:42;5.45;;;2.15;;